Enter the Airport ICAO Code

Search by Airport or City

Current Weather

VABB | Chhatrapati Shivaji International Airport

Mumbai, Maharashtra, India

Last Update 18 Minutes Ago

Sky Without Significant nor Low Altitude Clouds

Temperature of 31 ºC

Light Winds from Variable Directions

Temperature

31 ºC

Dew Point Temperature

19 ºC

Relative Humidity

49.09 %

Wind Direction

Variable

Wind Velocity

6 km/h (03 kt)

Gusts

None

Visibility

Reduced to 3.0 Kilometers

Sea Level Pressure

1013 hPa (Hectopascals)

Layers of Clouds

None

METAR VABB 160700Z VRB03KT 3000 FU NSC 31/19 Q1013 NOSIG

Weather Forecast

VABB | Chhatrapati Shivaji International Airport

Mumbai, Maharashtra, India

Forecast valid for the next 8 Hours

From now on it is expected:

Sky with Few Clouds

Moderate Winds from West

Maximum Temperature

No Data

Minimum Temperature

No Data

TAF VABB 160500Z 1606/1615 27010KT 4000 FU FEW100